sensor_id;sensor_type;location;lat;lon;timestamp;P1;durP1;ratioP1;P2;durP2;ratioP2
7493;SDS011;3788;49.902;8.590;2023-08-06T00:00:19;2.90;;;2.70;;
7493;SDS011;3788;49.902;8.590;2023-08-06T00:02:46;2.83;;;2.63;;
7493;SDS011;3788;49.902;8.590;2023-08-06T00:05:13;3.00;;;2.80;;
7493;SDS011;3788;49.902;8.590;2023-08-06T00:07:42;3.27;;;2.90;;
7493;SDS011;3788;49.902;8.590;2023-08-06T00:10:11;2.90;;;2.70;;
7493;SDS011;3788;49.902;8.590;2023-08-06T00:12:37;3.27;;;3.00;;
7493;SDS011;3788;49.902;8.590;2023-08-06T00:15:04;3.17;;;2.90;;
7493;SDS011;3788;49.902;8.590;2023-08-06T00:17:32;4.17;;;2.90;;
7493;SDS011;3788;49.902;8.590;2023-08-06T00:19:59;3.07;;;2.87;;
7493;SDS011;3788;49.902;8.590;2023-08-06T00:22:30;3.20;;;2.90;;
7493;SDS011;3788;49.902;8.590;2023-08-06T00:24:57;3.30;;;2.97;;
7493;SDS011;3788;49.902;8.590;2023-08-06T00:27:25;3.60;;;2.97;;
7493;SDS011;3788;49.902;8.590;2023-08-06T00:29:51;2.80;;;2.60;;
7493;SDS011;3788;49.902;8.590;2023-08-06T00:32:18;3.23;;;2.70;;
7493;SDS011;3788;49.902;8.590;2023-08-06T00:34:45;3.07;;;2.77;;
7493;SDS011;3788;49.902;8.590;2023-08-06T00:37:14;2.70;;;2.50;;
7493;SDS011;3788;49.902;8.590;2023-08-06T00:39:41;3.13;;;2.83;;
7493;SDS011;3788;49.902;8.590;2023-08-06T00:42:07;3.00;;;2.70;;
7493;SDS011;3788;49.902;8.590;2023-08-06T00:44:35;3.40;;;3.10;;
7493;SDS011;3788;49.902;8.590;2023-08-06T00:47:02;2.60;;;2.40;;
7493;SDS011;3788;49.902;8.590;2023-08-06T00:49:30;3.00;;;2.80;;
7493;SDS011;3788;49.902;8.590;2023-08-06T00:51:57;3.33;;;3.13;;
7493;SDS011;3788;49.902;8.590;2023-08-06T00:54:24;3.27;;;3.00;;
7493;SDS011;3788;49.902;8.590;2023-08-06T00:56:52;3.03;;;2.50;;
7493;SDS011;3788;49.902;8.590;2023-08-06T00:59:19;3.03;;;2.83;;
7493;SDS011;3788;49.902;8.590;2023-08-06T01:01:47;3.13;;;2.83;;
7493;SDS011;3788;49.902;8.590;2023-08-06T01:04:15;4.40;;;2.90;;
7493;SDS011;3788;49.902;8.590;2023-08-06T01:06:43;3.10;;;2.80;;
7493;SDS011;3788;49.902;8.590;2023-08-06T01:09:17;2.70;;;2.50;;
7493;SDS011;3788;49.902;8.590;2023-08-06T01:11:54;4.20;;;2.67;;
7493;SDS011;3788;49.902;8.590;2023-08-06T01:14:28;2.60;;;2.40;;
7493;SDS011;3788;49.902;8.590;2023-08-06T01:17:01;3.17;;;2.80;;
7493;SDS011;3788;49.902;8.590;2023-08-06T01:19:29;2.60;;;2.40;;
7493;SDS011;3788;49.902;8.590;2023-08-06T01:21:57;3.43;;;2.67;;
7493;SDS011;3788;49.902;8.590;2023-08-06T01:24:23;4.00;;;3.03;;
7493;SDS011;3788;49.902;8.590;2023-08-06T01:26:51;3.63;;;2.97;;
7493;SDS011;3788;49.902;8.590;2023-08-06T01:29:25;2.77;;;2.50;;
7493;SDS011;3788;49.902;8.590;2023-08-06T01:31:57;2.70;;;2.50;;
7493;SDS011;3788;49.902;8.590;2023-08-06T01:34:25;2.63;;;2.43;;
7493;SDS011;3788;49.902;8.590;2023-08-06T01:36:54;2.13;;;2.03;;
7493;SDS011;3788;49.902;8.590;2023-08-06T01:39:23;2.97;;;2.67;;
7493;SDS011;3788;49.902;8.590;2023-08-06T01:41:49;3.00;;;2.70;;
7493;SDS011;3788;49.902;8.590;2023-08-06T01:44:16;2.73;;;2.53;;
7493;SDS011;3788;49.902;8.590;2023-08-06T01:46:43;2.47;;;2.27;;
7493;SDS011;3788;49.902;8.590;2023-08-06T01:49:09;2.90;;;2.60;;
7493;SDS011;3788;49.902;8.590;2023-08-06T01:51:36;2.50;;;2.30;;
7493;SDS011;3788;49.902;8.590;2023-08-06T01:54:03;2.73;;;2.50;;
7493;SDS011;3788;49.902;8.590;2023-08-06T01:56:31;2.60;;;2.40;;
7493;SDS011;3788;49.902;8.590;2023-08-06T01:58:58;2.90;;;2.50;;
7493;SDS011;3788;49.902;8.590;2023-08-06T02:01:24;2.70;;;2.50;;
7493;SDS011;3788;49.902;8.590;2023-08-06T02:03:51;3.13;;;2.30;;
7493;SDS011;3788;49.902;8.590;2023-08-06T02:06:17;2.57;;;2.30;;
7493;SDS011;3788;49.902;8.590;2023-08-06T02:08:44;2.57;;;2.30;;
7493;SDS011;3788;49.902;8.590;2023-08-06T02:11:11;2.17;;;2.07;;
7493;SDS011;3788;49.902;8.590;2023-08-06T02:13:39;2.30;;;2.10;;
7493;SDS011;3788;49.902;8.590;2023-08-06T02:16:06;5.57;;;2.33;;
7493;SDS011;3788;49.902;8.590;2023-08-06T02:18:33;3.07;;;2.67;;
7493;SDS011;3788;49.902;8.590;2023-08-06T02:21:00;3.40;;;2.50;;
7493;SDS011;3788;49.902;8.590;2023-08-06T02:23:27;3.23;;;2.40;;
7493;SDS011;3788;49.902;8.590;2023-08-06T02:25:57;2.00;;;1.90;;
7493;SDS011;3788;49.902;8.590;2023-08-06T02:28:24;2.73;;;2.30;;
7493;SDS011;3788;49.902;8.590;2023-08-06T02:30:52;2.60;;;2.40;;
7493;SDS011;3788;49.902;8.590;2023-08-06T02:33:19;3.83;;;2.40;;
7493;SDS011;3788;49.902;8.590;2023-08-06T02:35:46;2.90;;;2.43;;
7493;SDS011;3788;49.902;8.590;2023-08-06T02:38:13;3.57;;;2.50;;
7493;SDS011;3788;49.902;8.590;2023-08-06T02:40:42;2.60;;;2.40;;
7493;SDS011;3788;49.902;8.590;2023-08-06T02:43:10;2.67;;;2.37;;
7493;SDS011;3788;49.902;8.590;2023-08-06T02:45:37;2.73;;;2.03;;
7493;SDS011;3788;49.902;8.590;2023-08-06T02:48:05;2.53;;;2.13;;
7493;SDS011;3788;49.902;8.590;2023-08-06T02:50:37;6.00;;;2.30;;
7493;SDS011;3788;49.902;8.590;2023-08-06T02:53:04;2.50;;;2.10;;
7493;SDS011;3788;49.902;8.590;2023-08-06T02:55:30;3.33;;;2.07;;
7493;SDS011;3788;49.902;8.590;2023-08-06T02:57:57;2.43;;;2.30;;
7493;SDS011;3788;49.902;8.590;2023-08-06T03:00:24;3.20;;;2.23;;
7493;SDS011;3788;49.902;8.590;2023-08-06T03:02:50;2.10;;;2.00;;
7493;SDS011;3788;49.902;8.590;2023-08-06T03:05:18;3.00;;;2.80;;
7493;SDS011;3788;49.902;8.590;2023-08-06T03:07:45;4.93;;;2.47;;
7493;SDS011;3788;49.902;8.590;2023-08-06T03:10:12;2.30;;;2.10;;
7493;SDS011;3788;49.902;8.590;2023-08-06T03:12:38;2.13;;;1.90;;
7493;SDS011;3788;49.902;8.590;2023-08-06T03:15:05;2.83;;;2.40;;
7493;SDS011;3788;49.902;8.590;2023-08-06T03:17:33;2.67;;;2.47;;
7493;SDS011;3788;49.902;8.590;2023-08-06T03:19:59;2.10;;;1.87;;
7493;SDS011;3788;49.902;8.590;2023-08-06T03:22:27;2.83;;;2.30;;
7493;SDS011;3788;49.902;8.590;2023-08-06T03:24:54;2.90;;;2.23;;
7493;SDS011;3788;49.902;8.590;2023-08-06T03:27:20;2.37;;;1.90;;
7493;SDS011;3788;49.902;8.590;2023-08-06T03:29:48;2.93;;;2.20;;
7493;SDS011;3788;49.902;8.590;2023-08-06T03:32:15;3.13;;;2.00;;
7493;SDS011;3788;49.902;8.590;2023-08-06T03:34:42;2.40;;;2.20;;
7493;SDS011;3788;49.902;8.590;2023-08-06T03:37:08;2.63;;;1.83;;
7493;SDS011;3788;49.902;8.590;2023-08-06T03:39:37;3.80;;;2.30;;
7493;SDS011;3788;49.902;8.590;2023-08-06T03:42:04;2.50;;;2.30;;
7493;SDS011;3788;49.902;8.590;2023-08-06T03:44:31;2.57;;;2.10;;
7493;SDS011;3788;49.902;8.590;2023-08-06T03:46:57;1.83;;;1.67;;
7493;SDS011;3788;49.902;8.590;2023-08-06T03:49:24;1.90;;;1.80;;
7493;SDS011;3788;49.902;8.590;2023-08-06T03:51:51;2.43;;;2.20;;
7493;SDS011;3788;49.902;8.590;2023-08-06T03:54:17;2.10;;;1.90;;
7493;SDS011;3788;49.902;8.590;2023-08-06T03:56:45;2.70;;;2.50;;
7493;SDS011;3788;49.902;8.590;2023-08-06T03:59:12;3.93;;;2.20;;
7493;SDS011;3788;49.902;8.590;2023-08-06T04:01:39;3.57;;;1.90;;
7493;SDS011;3788;49.902;8.590;2023-08-06T04:04:05;2.20;;;2.00;;
7493;SDS011;3788;49.902;8.590;2023-08-06T04:06:32;2.57;;;2.13;;
7493;SDS011;3788;49.902;8.590;2023-08-06T04:08:59;2.27;;;2.07;;
7493;SDS011;3788;49.902;8.590;2023-08-06T04:11:25;2.83;;;1.93;;
7493;SDS011;3788;49.902;8.590;2023-08-06T04:13:53;3.57;;;2.00;;
7493;SDS011;3788;49.902;8.590;2023-08-06T04:16:20;2.57;;;2.37;;
7493;SDS011;3788;49.902;8.590;2023-08-06T04:18:47;2.60;;;2.00;;
7493;SDS011;3788;49.902;8.590;2023-08-06T04:21:13;2.93;;;2.30;;
7493;SDS011;3788;49.902;8.590;2023-08-06T04:23:40;3.47;;;2.80;;
7493;SDS011;3788;49.902;8.590;2023-08-06T04:26:07;2.40;;;2.20;;
7493;SDS011;3788;49.902;8.590;2023-08-06T04:28:34;3.03;;;2.70;;
7493;SDS011;3788;49.902;8.590;2023-08-06T04:31:02;2.70;;;2.50;;
7493;SDS011;3788;49.902;8.590;2023-08-06T04:33:28;2.63;;;2.43;;
7493;SDS011;3788;49.902;8.590;2023-08-06T04:35:55;4.40;;;2.70;;
7493;SDS011;3788;49.902;8.590;2023-08-06T04:38:23;7.20;;;3.23;;
7493;SDS011;3788;49.902;8.590;2023-08-06T04:40:49;3.20;;;2.60;;
7493;SDS011;3788;49.902;8.590;2023-08-06T04:43:16;3.27;;;2.40;;
7493;SDS011;3788;49.902;8.590;2023-08-06T04:45:45;2.53;;;2.30;;
7493;SDS011;3788;49.902;8.590;2023-08-06T04:48:13;3.17;;;2.20;;
7493;SDS011;3788;49.902;8.590;2023-08-06T04:50:43;3.27;;;2.40;;
7493;SDS011;3788;49.902;8.590;2023-08-06T04:53:10;3.27;;;2.50;;
7493;SDS011;3788;49.902;8.590;2023-08-06T04:55:36;4.37;;;2.60;;
7493;SDS011;3788;49.902;8.590;2023-08-06T04:58:03;3.57;;;3.10;;
7493;SDS011;3788;49.902;8.590;2023-08-06T05:00:30;3.30;;;3.10;;
7493;SDS011;3788;49.902;8.590;2023-08-06T05:02:59;2.87;;;2.60;;
7493;SDS011;3788;49.902;8.590;2023-08-06T05:05:27;3.87;;;2.63;;
7493;SDS011;3788;49.902;8.590;2023-08-06T05:07:54;2.50;;;2.30;;
7493;SDS011;3788;49.902;8.590;2023-08-06T05:10:24;3.23;;;2.40;;
7493;SDS011;3788;49.902;8.590;2023-08-06T05:12:50;4.17;;;2.73;;
7493;SDS011;3788;49.902;8.590;2023-08-06T05:15:17;3.33;;;2.90;;
7493;SDS011;3788;49.902;8.590;2023-08-06T05:17:44;2.50;;;2.30;;
7493;SDS011;3788;49.902;8.590;2023-08-06T05:20:11;2.23;;;2.03;;
7493;SDS011;3788;49.902;8.590;2023-08-06T05:22:39;4.40;;;2.27;;
7493;SDS011;3788;49.902;8.590;2023-08-06T05:25:06;1.93;;;1.73;;
7493;SDS011;3788;49.902;8.590;2023-08-06T05:27:33;4.57;;;2.53;;
7493;SDS011;3788;49.902;8.590;2023-08-06T05:29:59;2.13;;;1.77;;
7493;SDS011;3788;49.902;8.590;2023-08-06T05:32:26;2.90;;;1.60;;
7493;SDS011;3788;49.902;8.590;2023-08-06T05:34:53;2.53;;;1.47;;
7493;SDS011;3788;49.902;8.590;2023-08-06T05:37:19;1.73;;;1.60;;
7493;SDS011;3788;49.902;8.590;2023-08-06T05:39:47;2.00;;;1.33;;
7493;SDS011;3788;49.902;8.590;2023-08-06T05:42:14;1.70;;;1.00;;
7493;SDS011;3788;49.902;8.590;2023-08-06T05:44:41;1.00;;;0.90;;
7493;SDS011;3788;49.902;8.590;2023-08-06T05:47:07;0.93;;;0.80;;
7493;SDS011;3788;49.902;8.590;2023-08-06T05:49:34;0.80;;;0.80;;
7493;SDS011;3788;49.902;8.590;2023-08-06T05:52:01;1.23;;;1.00;;
7493;SDS011;3788;49.902;8.590;2023-08-06T05:54:31;0.80;;;0.80;;
7493;SDS011;3788;49.902;8.590;2023-08-06T05:56:59;1.30;;;1.00;;
7493;SDS011;3788;49.902;8.590;2023-08-06T05:59:25;2.17;;;1.13;;
7493;SDS011;3788;49.902;8.590;2023-08-06T06:01:52;1.43;;;1.33;;
7493;SDS011;3788;49.902;8.590;2023-08-06T06:04:18;1.57;;;1.10;;
7493;SDS011;3788;49.902;8.590;2023-08-06T06:06:47;2.27;;;1.50;;
7493;SDS011;3788;49.902;8.590;2023-08-06T06:09:13;2.47;;;1.73;;
7493;SDS011;3788;49.902;8.590;2023-08-06T06:11:40;2.63;;;1.50;;
7493;SDS011;3788;49.902;8.590;2023-08-06T06:14:08;1.40;;;1.30;;
7493;SDS011;3788;49.902;8.590;2023-08-06T06:16:34;2.57;;;1.77;;
7493;SDS011;3788;49.902;8.590;2023-08-06T06:19:01;3.27;;;1.50;;
7493;SDS011;3788;49.902;8.590;2023-08-06T06:21:28;1.70;;;1.60;;
7493;SDS011;3788;49.902;8.590;2023-08-06T06:23:54;3.90;;;2.00;;
7493;SDS011;3788;49.902;8.590;2023-08-06T06:26:21;1.83;;;1.73;;
7493;SDS011;3788;49.902;8.590;2023-08-06T06:28:48;4.37;;;2.23;;
7493;SDS011;3788;49.902;8.590;2023-08-06T06:31:16;2.03;;;1.40;;
7493;SDS011;3788;49.902;8.590;2023-08-06T06:33:43;2.00;;;1.80;;
7493;SDS011;3788;49.902;8.590;2023-08-06T06:36:09;2.60;;;1.90;;
7493;SDS011;3788;49.902;8.590;2023-08-06T06:38:36;3.20;;;1.97;;
7493;SDS011;3788;49.902;8.590;2023-08-06T06:41:03;2.93;;;1.60;;
7493;SDS011;3788;49.902;8.590;2023-08-06T06:43:30;2.23;;;1.67;;
7493;SDS011;3788;49.902;8.590;2023-08-06T06:45:57;1.83;;;1.73;;
7493;SDS011;3788;49.902;8.590;2023-08-06T06:48:26;1.37;;;1.10;;
7493;SDS011;3788;49.902;8.590;2023-08-06T06:50:54;2.43;;;1.43;;
7493;SDS011;3788;49.902;8.590;2023-08-06T06:53:20;1.30;;;1.20;;
7493;SDS011;3788;49.902;8.590;2023-08-06T06:55:52;2.40;;;1.10;;
7493;SDS011;3788;49.902;8.590;2023-08-06T06:58:18;0.90;;;0.90;;
7493;SDS011;3788;49.902;8.590;2023-08-06T07:00:46;1.10;;;1.00;;
7493;SDS011;3788;49.902;8.590;2023-08-06T07:03:13;1.10;;;0.93;;
7493;SDS011;3788;49.902;8.590;2023-08-06T07:05:41;0.80;;;0.80;;
7493;SDS011;3788;49.902;8.590;2023-08-06T07:08:09;1.03;;;0.83;;
7493;SDS011;3788;49.902;8.590;2023-08-06T07:10:36;0.80;;;0.80;;
7493;SDS011;3788;49.902;8.590;2023-08-06T07:13:03;1.17;;;0.80;;
7493;SDS011;3788;49.902;8.590;2023-08-06T07:15:30;1.00;;;0.90;;
7493;SDS011;3788;49.902;8.590;2023-08-06T07:17:56;0.90;;;0.90;;
7493;SDS011;3788;49.902;8.590;2023-08-06T07:20:23;1.00;;;0.90;;
7493;SDS011;3788;49.902;8.590;2023-08-06T07:22:51;1.10;;;1.00;;
7493;SDS011;3788;49.902;8.590;2023-08-06T07:25:18;1.20;;;1.10;;
7493;SDS011;3788;49.902;8.590;2023-08-06T07:27:44;3.30;;;1.10;;
7493;SDS011;3788;49.902;8.590;2023-08-06T07:30:11;2.70;;;1.00;;
7493;SDS011;3788;49.902;8.590;2023-08-06T07:32:38;1.30;;;1.10;;
7493;SDS011;3788;49.902;8.590;2023-08-06T07:35:05;1.30;;;1.20;;
7493;SDS011;3788;49.902;8.590;2023-08-06T07:37:34;2.53;;;1.10;;
7493;SDS011;3788;49.902;8.590;2023-08-06T07:40:02;1.47;;;1.37;;
7493;SDS011;3788;49.902;8.590;2023-08-06T07:42:29;1.30;;;1.20;;
7493;SDS011;3788;49.902;8.590;2023-08-06T07:44:57;2.20;;;1.37;;
7493;SDS011;3788;49.902;8.590;2023-08-06T07:47:24;2.77;;;1.33;;
7493;SDS011;3788;49.902;8.590;2023-08-06T07:49:51;2.23;;;1.30;;
7493;SDS011;3788;49.902;8.590;2023-08-06T07:52:18;2.13;;;1.47;;
7493;SDS011;3788;49.902;8.590;2023-08-06T07:54:44;2.17;;;1.30;;
7493;SDS011;3788;49.902;8.590;2023-08-06T07:57:13;2.57;;;1.27;;
7493;SDS011;3788;49.902;8.590;2023-08-06T07:59:41;1.40;;;1.30;;
7493;SDS011;3788;49.902;8.590;2023-08-06T08:02:08;2.13;;;1.20;;
7493;SDS011;3788;49.902;8.590;2023-08-06T08:04:35;1.20;;;1.10;;
7493;SDS011;3788;49.902;8.590;2023-08-06T08:07:01;1.93;;;1.00;;
7493;SDS011;3788;49.902;8.590;2023-08-06T08:09:28;2.07;;;1.43;;
7493;SDS011;3788;49.902;8.590;2023-08-06T08:11:55;1.40;;;1.20;;
7493;SDS011;3788;49.902;8.590;2023-08-06T08:14:23;1.63;;;1.40;;
7493;SDS011;3788;49.902;8.590;2023-08-06T08:16:49;1.97;;;1.23;;
7493;SDS011;3788;49.902;8.590;2023-08-06T08:19:16;1.60;;;1.20;;
7493;SDS011;3788;49.902;8.590;2023-08-06T08:21:43;1.43;;;1.10;;
7493;SDS011;3788;49.902;8.590;2023-08-06T08:24:09;1.37;;;1.17;;
7493;SDS011;3788;49.902;8.590;2023-08-06T08:26:36;2.93;;;1.43;;
7493;SDS011;3788;49.902;8.590;2023-08-06T08:29:02;1.17;;;1.10;;
7493;SDS011;3788;49.902;8.590;2023-08-06T08:31:31;1.33;;;1.23;;
7493;SDS011;3788;49.902;8.590;2023-08-06T08:34:04;0.83;;;0.80;;
7493;SDS011;3788;49.902;8.590;2023-08-06T08:36:30;1.10;;;0.80;;
7493;SDS011;3788;49.902;8.590;2023-08-06T08:38:57;1.30;;;0.60;;
7493;SDS011;3788;49.902;8.590;2023-08-06T08:41:23;0.80;;;0.70;;
7493;SDS011;3788;49.902;8.590;2023-08-06T08:43:50;0.60;;;0.60;;
7493;SDS011;3788;49.902;8.590;2023-08-06T08:46:18;0.80;;;0.70;;
7493;SDS011;3788;49.902;8.590;2023-08-06T08:48:47;0.50;;;0.50;;
7493;SDS011;3788;49.902;8.590;2023-08-06T08:51:15;0.53;;;0.53;;
7493;SDS011;3788;49.902;8.590;2023-08-06T08:53:42;1.27;;;0.50;;
7493;SDS011;3788;49.902;8.590;2023-08-06T08:56:11;1.10;;;0.50;;
7493;SDS011;3788;49.902;8.590;2023-08-06T08:58:39;0.50;;;0.50;;
7493;SDS011;3788;49.902;8.590;2023-08-06T09:01:06;0.50;;;0.50;;
7493;SDS011;3788;49.902;8.590;2023-08-06T09:03:34;0.53;;;0.40;;
7493;SDS011;3788;49.902;8.590;2023-08-06T09:06:04;0.63;;;0.50;;
7493;SDS011;3788;49.902;8.590;2023-08-06T09:08:33;6.60;;;0.63;;
7493;SDS011;3788;49.902;8.590;2023-08-06T09:11:04;0.40;;;0.40;;
7493;SDS011;3788;49.902;8.590;2023-08-06T09:13:31;0.53;;;0.43;;
7493;SDS011;3788;49.902;8.590;2023-08-06T09:15:57;0.30;;;0.30;;
7493;SDS011;3788;49.902;8.590;2023-08-06T09:18:25;0.30;;;0.30;;
7493;SDS011;3788;49.902;8.590;2023-08-06T09:20:52;0.40;;;0.40;;
7493;SDS011;3788;49.902;8.590;2023-08-06T09:23:21;0.47;;;0.47;;
7493;SDS011;3788;49.902;8.590;2023-08-06T09:25:54;0.50;;;0.50;;
7493;SDS011;3788;49.902;8.590;2023-08-06T09:28:21;0.57;;;0.57;;
7493;SDS011;3788;49.902;8.590;2023-08-06T09:30:49;0.40;;;0.40;;
7493;SDS011;3788;49.902;8.590;2023-08-06T09:33:17;1.50;;;0.50;;
7493;SDS011;3788;49.902;8.590;2023-08-06T09:35:45;0.53;;;0.50;;
7493;SDS011;3788;49.902;8.590;2023-08-06T09:38:12;0.60;;;0.60;;
7493;SDS011;3788;49.902;8.590;2023-08-06T09:40:40;0.95;;;0.50;;
7493;SDS011;3788;49.902;8.590;2023-08-06T09:43:07;0.83;;;0.60;;
7493;SDS011;3788;49.902;8.590;2023-08-06T09:45:35;0.67;;;0.67;;
7493;SDS011;3788;49.902;8.590;2023-08-06T09:48:03;0.70;;;0.60;;
7493;SDS011;3788;49.902;8.590;2023-08-06T09:50:30;1.13;;;0.70;;
7493;SDS011;3788;49.902;8.590;2023-08-06T09:52:58;1.03;;;0.60;;
7493;SDS011;3788;49.902;8.590;2023-08-06T09:55:26;0.53;;;0.53;;
7493;SDS011;3788;49.902;8.590;2023-08-06T09:57:54;0.63;;;0.63;;
7493;SDS011;3788;49.902;8.590;2023-08-06T10:00:22;0.60;;;0.60;;
7493;SDS011;3788;49.902;8.590;2023-08-06T10:02:49;0.80;;;0.80;;
7493;SDS011;3788;49.902;8.590;2023-08-06T10:05:19;0.70;;;0.70;;
7493;SDS011;3788;49.902;8.590;2023-08-06T10:07:46;0.60;;;0.60;;
7493;SDS011;3788;49.902;8.590;2023-08-06T10:10:15;0.80;;;0.70;;
7493;SDS011;3788;49.902;8.590;2023-08-06T10:12:43;0.53;;;0.53;;
7493;SDS011;3788;49.902;8.590;2023-08-06T10:15:16;0.53;;;0.53;;
7493;SDS011;3788;49.902;8.590;2023-08-06T10:17:48;0.60;;;0.60;;
7493;SDS011;3788;49.902;8.590;2023-08-06T10:20:18;0.80;;;0.60;;
7493;SDS011;3788;49.902;8.590;2023-08-06T10:22:46;0.57;;;0.57;;
7493;SDS011;3788;49.902;8.590;2023-08-06T10:25:26;0.70;;;0.70;;
7493;SDS011;3788;49.902;8.590;2023-08-06T10:27:56;0.60;;;0.60;;
7493;SDS011;3788;49.902;8.590;2023-08-06T10:30:25;0.83;;;0.70;;
7493;SDS011;3788;49.902;8.590;2023-08-06T10:32:53;0.53;;;0.53;;
7493;SDS011;3788;49.902;8.590;2023-08-06T10:35:32;0.60;;;0.60;;
7493;SDS011;3788;49.902;8.590;2023-08-06T10:38:05;0.47;;;0.47;;
7493;SDS011;3788;49.902;8.590;2023-08-06T10:40:33;1.07;;;0.60;;
7493;SDS011;3788;49.902;8.590;2023-08-06T10:43:00;0.57;;;0.57;;
7493;SDS011;3788;49.902;8.590;2023-08-06T10:45:28;0.40;;;0.40;;
7493;SDS011;3788;49.902;8.590;2023-08-06T10:47:55;0.50;;;0.50;;
7493;SDS011;3788;49.902;8.590;2023-08-06T10:50:23;0.47;;;0.47;;
7493;SDS011;3788;49.902;8.590;2023-08-06T10:52:50;0.60;;;0.40;;
7493;SDS011;3788;49.902;8.590;2023-08-06T10:55:24;0.77;;;0.40;;
7493;SDS011;3788;49.902;8.590;2023-08-06T10:57:51;0.93;;;0.50;;
7493;SDS011;3788;49.902;8.590;2023-08-06T11:00:19;0.40;;;0.40;;
7493;SDS011;3788;49.902;8.590;2023-08-06T11:02:48;0.30;;;0.30;;
7493;SDS011;3788;49.902;8.590;2023-08-06T11:05:15;0.30;;;0.30;;
7493;SDS011;3788;49.902;8.590;2023-08-06T11:07:42;0.40;;;0.40;;
7493;SDS011;3788;49.902;8.590;2023-08-06T11:10:09;1.10;;;0.47;;
7493;SDS011;3788;49.902;8.590;2023-08-06T11:12:36;0.40;;;0.40;;
7493;SDS011;3788;49.902;8.590;2023-08-06T11:15:04;0.30;;;0.30;;
7493;SDS011;3788;49.902;8.590;2023-08-06T11:17:32;1.43;;;0.30;;
7493;SDS011;3788;49.902;8.590;2023-08-06T11:20:01;0.40;;;0.40;;
7493;SDS011;3788;49.902;8.590;2023-08-06T11:22:29;0.30;;;0.30;;
7493;SDS011;3788;49.902;8.590;2023-08-06T11:24:56;0.30;;;0.30;;
7493;SDS011;3788;49.902;8.590;2023-08-06T11:27:26;0.40;;;0.40;;
7493;SDS011;3788;49.902;8.590;2023-08-06T11:29:54;0.30;;;0.30;;
7493;SDS011;3788;49.902;8.590;2023-08-06T11:32:20;1.70;;;0.73;;
7493;SDS011;3788;49.902;8.590;2023-08-06T11:34:47;0.30;;;0.30;;
7493;SDS011;3788;49.902;8.590;2023-08-06T11:37:15;0.40;;;0.40;;
7493;SDS011;3788;49.902;8.590;2023-08-06T11:39:44;0.57;;;0.33;;
7493;SDS011;3788;49.902;8.590;2023-08-06T11:42:13;1.03;;;0.40;;
7493;SDS011;3788;49.902;8.590;2023-08-06T11:44:40;0.30;;;0.30;;
7493;SDS011;3788;49.902;8.590;2023-08-06T11:47:11;0.67;;;0.40;;
7493;SDS011;3788;49.902;8.590;2023-08-06T11:49:40;0.30;;;0.30;;
7493;SDS011;3788;49.902;8.590;2023-08-06T11:52:17;0.43;;;0.40;;
7493;SDS011;3788;49.902;8.590;2023-08-06T11:54:46;0.40;;;0.40;;
7493;SDS011;3788;49.902;8.590;2023-08-06T11:57:13;1.07;;;0.40;;
7493;SDS011;3788;49.902;8.590;2023-08-06T11:59:41;0.40;;;0.40;;
7493;SDS011;3788;49.902;8.590;2023-08-06T12:02:08;0.40;;;0.40;;
7493;SDS011;3788;49.902;8.590;2023-08-06T12:07:31;0.30;;;0.30;;
7493;SDS011;3788;49.902;8.590;2023-08-06T12:09:58;0.40;;;0.40;;
7493;SDS011;3788;49.902;8.590;2023-08-06T12:12:25;0.67;;;0.50;;
7493;SDS011;3788;49.902;8.590;2023-08-06T12:14:52;0.40;;;0.40;;
7493;SDS011;3788;49.902;8.590;2023-08-06T12:17:18;0.40;;;0.40;;
7493;SDS011;3788;49.902;8.590;2023-08-06T12:19:45;0.50;;;0.50;;
7493;SDS011;3788;49.902;8.590;2023-08-06T12:22:13;0.50;;;0.50;;
7493;SDS011;3788;49.902;8.590;2023-08-06T12:24:41;0.60;;;0.60;;
7493;SDS011;3788;49.902;8.590;2023-08-06T12:27:08;0.50;;;0.50;;
7493;SDS011;3788;49.902;8.590;2023-08-06T12:29:36;0.57;;;0.57;;
7493;SDS011;3788;49.902;8.590;2023-08-06T12:32:06;0.50;;;0.50;;
7493;SDS011;3788;49.902;8.590;2023-08-06T12:34:33;0.53;;;0.53;;
7493;SDS011;3788;49.902;8.590;2023-08-06T12:37:00;0.77;;;0.77;;
7493;SDS011;3788;49.902;8.590;2023-08-06T12:39:26;1.03;;;0.50;;
7493;SDS011;3788;49.902;8.590;2023-08-06T12:41:55;1.67;;;0.60;;
7493;SDS011;3788;49.902;8.590;2023-08-06T12:44:22;0.63;;;0.60;;
7493;SDS011;3788;49.902;8.590;2023-08-06T12:46:49;0.60;;;0.60;;
7493;SDS011;3788;49.902;8.590;2023-08-06T12:49:16;0.67;;;0.63;;
7493;SDS011;3788;49.902;8.590;2023-08-06T12:51:42;0.70;;;0.70;;
7493;SDS011;3788;49.902;8.590;2023-08-06T12:54:09;0.70;;;0.70;;
7493;SDS011;3788;49.902;8.590;2023-08-06T12:56:36;0.93;;;0.70;;
7493;SDS011;3788;49.902;8.590;2023-08-06T12:59:04;1.27;;;0.80;;
7493;SDS011;3788;49.902;8.590;2023-08-06T13:01:30;0.60;;;0.60;;
7493;SDS011;3788;49.902;8.590;2023-08-06T13:03:57;0.77;;;0.70;;
7493;SDS011;3788;49.902;8.590;2023-08-06T13:06:24;0.80;;;0.60;;
7493;SDS011;3788;49.902;8.590;2023-08-06T13:08:51;0.60;;;0.60;;
7493;SDS011;3788;49.902;8.590;2023-08-06T13:11:17;2.60;;;0.80;;
7493;SDS011;3788;49.902;8.590;2023-08-06T13:13:44;0.53;;;0.53;;
7493;SDS011;3788;49.902;8.590;2023-08-06T13:16:12;0.67;;;0.60;;
7493;SDS011;3788;49.902;8.590;2023-08-06T13:18:39;0.67;;;0.67;;
7493;SDS011;3788;49.902;8.590;2023-08-06T13:21:06;0.80;;;0.80;;
7493;SDS011;3788;49.902;8.590;2023-08-06T13:23:32;1.20;;;0.70;;
7493;SDS011;3788;49.902;8.590;2023-08-06T13:25:59;2.63;;;0.73;;
7493;SDS011;3788;49.902;8.590;2023-08-06T13:28:26;1.10;;;0.70;;
7493;SDS011;3788;49.902;8.590;2023-08-06T13:30:52;0.80;;;0.80;;
7493;SDS011;3788;49.902;8.590;2023-08-06T13:33:21;4.37;;;1.10;;
7493;SDS011;3788;49.902;8.590;2023-08-06T13:35:47;0.83;;;0.70;;
7493;SDS011;3788;49.902;8.590;2023-08-06T13:38:15;1.23;;;0.90;;
7493;SDS011;3788;49.902;8.590;2023-08-06T13:40:42;1.93;;;0.90;;
7493;SDS011;3788;49.902;8.590;2023-08-06T13:43:09;1.13;;;0.93;;
7493;SDS011;3788;49.902;8.590;2023-08-06T13:45:36;0.70;;;0.60;;
7493;SDS011;3788;49.902;8.590;2023-08-06T13:48:03;0.67;;;0.67;;
7493;SDS011;3788;49.902;8.590;2023-08-06T13:50:31;1.03;;;0.70;;
7493;SDS011;3788;49.902;8.590;2023-08-06T13:52:58;0.80;;;0.70;;
7493;SDS011;3788;49.902;8.590;2023-08-06T13:55:24;0.47;;;0.47;;
7493;SDS011;3788;49.902;8.590;2023-08-06T13:57:51;0.50;;;0.50;;
7493;SDS011;3788;49.902;8.590;2023-08-06T14:00:18;1.67;;;0.60;;
7493;SDS011;3788;49.902;8.590;2023-08-06T14:02:45;0.60;;;0.60;;
7493;SDS011;3788;49.902;8.590;2023-08-06T14:05:12;0.70;;;0.70;;
7493;SDS011;3788;49.902;8.590;2023-08-06T14:07:41;0.43;;;0.43;;
7493;SDS011;3788;49.902;8.590;2023-08-06T14:10:08;1.93;;;0.67;;
7493;SDS011;3788;49.902;8.590;2023-08-06T14:12:35;1.17;;;0.70;;
7493;SDS011;3788;49.902;8.590;2023-08-06T14:15:01;1.17;;;0.60;;
7493;SDS011;3788;49.902;8.590;2023-08-06T14:17:29;0.40;;;0.40;;
7493;SDS011;3788;49.902;8.590;2023-08-06T14:19:55;0.40;;;0.40;;
7493;SDS011;3788;49.902;8.590;2023-08-06T14:22:22;0.53;;;0.50;;
7493;SDS011;3788;49.902;8.590;2023-08-06T14:24:50;1.03;;;0.60;;
7493;SDS011;3788;49.902;8.590;2023-08-06T14:27:17;0.60;;;0.60;;
7493;SDS011;3788;49.902;8.590;2023-08-06T14:29:44;0.83;;;0.60;;
7493;SDS011;3788;49.902;8.590;2023-08-06T14:32:10;0.60;;;0.60;;
7493;SDS011;3788;49.902;8.590;2023-08-06T14:34:37;0.40;;;0.40;;
7493;SDS011;3788;49.902;8.590;2023-08-06T14:37:03;0.50;;;0.47;;
7493;SDS011;3788;49.902;8.590;2023-08-06T14:39:30;0.83;;;0.53;;
7493;SDS011;3788;49.902;8.590;2023-08-06T14:41:58;0.50;;;0.50;;
7493;SDS011;3788;49.902;8.590;2023-08-06T14:44:25;0.60;;;0.60;;
7493;SDS011;3788;49.902;8.590;2023-08-06T14:46:51;0.60;;;0.50;;
7493;SDS011;3788;49.902;8.590;2023-08-06T14:49:18;0.57;;;0.57;;
7493;SDS011;3788;49.902;8.590;2023-08-06T14:51:45;1.27;;;0.60;;
7493;SDS011;3788;49.902;8.590;2023-08-06T14:54:12;0.40;;;0.40;;
7493;SDS011;3788;49.902;8.590;2023-08-06T14:56:38;0.43;;;0.43;;
7493;SDS011;3788;49.902;8.590;2023-08-06T14:59:06;0.50;;;0.50;;
7493;SDS011;3788;49.902;8.590;2023-08-06T15:01:33;0.50;;;0.50;;
7493;SDS011;3788;49.902;8.590;2023-08-06T15:03:59;0.40;;;0.40;;
7493;SDS011;3788;49.902;8.590;2023-08-06T15:06:26;1.13;;;0.47;;
7493;SDS011;3788;49.902;8.590;2023-08-06T15:08:53;0.50;;;0.50;;
7493;SDS011;3788;49.902;8.590;2023-08-06T15:11:23;0.67;;;0.60;;
7493;SDS011;3788;49.902;8.590;2023-08-06T15:13:50;0.40;;;0.40;;
7493;SDS011;3788;49.902;8.590;2023-08-06T15:16:18;0.50;;;0.50;;
7493;SDS011;3788;49.902;8.590;2023-08-06T15:18:44;0.67;;;0.50;;